Albert-Bray Airport

Airport
ICAO code: 
LFAQ
Summary
ICAO Region: 
EUR
Territory: 
Location: 
, Picardie
Serving: 
Albert
Elevation: 
364 ft
Coordinates: 
Aerial View: 
49° 58' 17.512" N, 2° 41' 51.58" E
Metar
Observation
LFAQ 241600Z AUTO 06003KT CAVOK 05/02 Q1032 NOSIG
Station
BRAY
Date/Time
2022-01-24 16:00:00
Wind direction
60°
Wind speed
03 kts
Lowest cloud amount
clouds and visibility OK
Temperature
5°C
Dew point
2°C
Humidity
80%
QNH
1032 hPa
Weather condition
n/a

Runways

Designator Length Width Surface Rops
9/27 1170 25 ASP No/No
Airport map: 
Aerial View: 

SKYbrary Partners:

Safety knowledge contributed by: